Latest Weather Observations for Port Fairy

IDV60801

Issued at 1:02 pm EST Sunday 19 April 2015 (issued every 30 minutes, with the page automatically refreshed every 10 minutes)

About weather observations | Map of weather stations | Latest weather observations for VIC | Other Formats
Station Details ID: 090175 Name: PORT FAIRY AWS Lat: -38.39 Lon: 142.23 Height: 10.0 m
Data from the previous 72 hours. | See also: Recent months at Port Fairy
Date/Time
EST
Temp
°C
App
Temp
°C
Dew
Point
Rel
Hum
%
Delta-T
°C
Wind Press
QNH
hPa
Press
MSL
hPa
Rain
since 9 am
mm
Dir
 
Spd
km/h
Gust
km/h
Spd
kts
Gust
kts
19/01:00pm 13.4 6.6 5.1 57 3.8 S 30 41 16 22 1032.0 1032.0 0.0
19/12:30pm 13.8 6.8 4.1 52 4.4 S 30 41 16 22 1031.8 1031.8 0.0
19/12:00pm 13.1 6.1 4.3 55 4.0 S 30 41 16 22 1031.7 1031.7 0.0
19/11:30am 13.2 6.8 5.1 58 3.8 S 28 39 15 21 1031.5 1031.5 0.0
19/11:00am 13.4 6.7 3.5 51 4.4 S 28 43 15 23 1031.2 1031.2 0.0
19/10:30am 12.1 5.1 3.9 57 3.7 S 30 43 16 23 1030.7 1030.7 0.0
19/10:00am 12.9 5.4 3.6 53 4.1 S 32 41 17 22 1030.3 1030.3 0.0
19/09:30am 12.8 5.6 5.2 60 3.5 S 32 44 17 24 1029.9 1029.9 0.0
19/09:00am 10.8 5.2 5.3 69 2.5 S 24 52 13 28 1029.6 1029.6 3.4
19/08:54am 10.2 2.0 5.0 70 2.3 S 37 56 20 30 1029.6 1029.6 3.4
19/08:47am 11.4 3.3 5.3 66 2.8 SSW 37 56 20 30 1029.3 1029.3 3.4
19/08:30am 12.5 5.5 5.9 64 3.1 SSW 32 43 17 23 1028.8 1028.8 3.4
19/08:00am 12.4 4.9 4.4 58 3.6 S 33 48 18 26 1027.9 1027.9 3.4
19/07:30am 12.3 4.5 4.8 60 3.4 S 35 52 19 28 1027.1 1027.1 3.4
19/07:00am 12.4 5.2 4.9 60 3.4 S 32 44 17 24 1026.3 1026.3 3.4
19/06:30am 12.2 5.3 4.4 59 3.5 SSW 30 46 16 25 1025.8 1025.8 3.4
19/06:00am 12.3 5.1 4.8 60 3.4 SSW 32 43 17 23 1025.0 1025.0 3.4
19/05:30am 12.4 4.6 5.1 61 3.4 SSW 35 50 19 27 1024.6 1024.6 3.4
19/05:00am 12.4 5.4 5.8 64 3.1 SSW 32 43 17 23 1024.0 1024.0 3.4
19/04:30am 11.9 4.9 5.8 66 2.8 SSW 32 43 17 23 1023.6 1023.6 3.4
19/04:00am 11.9 4.6 7.0 72 2.3 SSW 35 50 19 27 1023.1 1023.1 3.4
19/03:30am 12.2 4.9 5.6 64 3.1 SSW 33 44 18 24 1022.5 1022.5 3.4
19/03:00am 11.9 5.0 6.4 69 2.6 SSW 32 43 17 23 1022.3 1022.3 3.4
19/02:38am 11.8 5.1 7.3 74 2.2 SSW 32 52 17 28 1022.0 1022.0 3.4
19/02:30am 11.7 4.3 6.8 72 2.3 S 35 52 19 28 1021.9 1021.9 3.4
19/02:12am 12.6 6.1 6.6 67 2.9 SSW 30 50 16 27 1021.6 1021.6 3.4
19/02:00am 12.4 5.9 6.5 67 2.8 SSW 30 46 16 25 1021.6 1021.6 3.4
19/01:30am 12.3 5.3 6.1 66 2.9 SSW 32 43 17 23 1021.3 1021.3 3.4
19/01:23am 12.4 5.6 6.7 68 2.7 SSW 32 50 17 27 1021.3 1021.3 3.4
19/01:00am 12.3 4.5 6.6 68 2.7 SW 37 48 20 26 1021.0 1021.0 3.4
19/12:30am 11.1 3.3 6.5 73 2.2 SSW 37 57 20 31 1020.7 1020.7 3.4
19/12:14am 11.4 4.4 6.9 74 2.1 SSW 33 52 18 28 1020.6 1020.6 3.4
19/12:05am 11.4 4.5 7.3 76 2.0 WSW 33 50 18 27 1020.5 1020.5 3.4
19/12:03am 11.5 4.7 7.0 74 2.1 WSW 32 50 17 27 1020.5 1020.5 3.4
19/12:00am 11.0 4.5 6.4 73 2.2 WSW 30 39 16 21 1020.4 1020.4 3.4
 
Date/Time
EST
Temp
°C
App
Temp
°C
Dew
Point
Rel
Hum
%
Delta-T
°C
Wind Press
QNH
hPa
Press
MSL
hPa
Rain
since 9 am
mm
Dir
 
Spd
km/h
Gust
km/h
Spd
kts
Gust
kts
18/11:48pm 11.0 2.1 6.9 76 1.9 WSW 43 61 23 33 1020.3 1020.3 3.4
18/11:40pm 11.9 3.4 7.0 72 2.3 SW 41 61 22 33 1020.3 1020.3 3.2
18/11:30pm 12.9 5.0 6.0 63 3.3 SW 37 48 20 26 1020.1 1020.1 3.2
18/11:00pm 12.8 5.0 6.8 67 2.9 SSW 37 50 20 27 1019.7 1019.7 3.2
18/10:30pm 13.2 5.4 6.8 65 3.1 SW 37 44 20 24 1019.3 1019.3 3.2
18/10:00pm 12.9 6.1 6.7 66 3.0 SW 32 39 17 21 1018.9 1018.9 3.2
18/09:30pm 13.6 6.3 7.2 65 3.1 SW 35 46 19 25 1018.3 1018.3 3.2
18/09:00pm 13.6 6.9 7.4 66 3.0 SW 32 44 17 24 1017.8 1017.8 3.2
18/08:30pm 13.4 6.3 6.5 63 3.3 SW 33 44 18 24 1017.4 1017.4 3.2
18/08:00pm 13.5 6.8 7.5 67 2.9 SW 32 41 17 22 1016.9 1016.9 3.2
18/07:54pm 13.4 6.6 7.6 68 2.8 SW 33 52 18 28 1016.8 1016.8 3.2
18/07:30pm 13.6 6.0 7.4 66 3.0 SW 37 46 20 25 1016.3 1016.3 3.2
18/07:00pm 13.7 6.7 8.3 70 2.7 SW 35 44 19 24 1015.7 1015.7 3.2
18/06:30pm 13.6 6.6 8.4 71 2.6 SW 35 50 19 27 1015.1 1015.1 3.2
18/06:00pm 13.5 7.3 9.4 76 2.1 SW 32 43 17 23 1014.6 1014.6 3.2
18/05:48pm 13.0 7.4 10.0 82 1.5 WSW 30 46 16 25 1014.4 1014.4 3.2
18/05:30pm 12.0 9.0 10.6 91 0.7 W 17 24 9 13 1013.9 1013.9 3.2
18/05:00pm 12.4 8.4 10.6 89 0.9 WSW 22 35 12 19 1013.6 1013.6 2.6
18/04:30pm 12.3 6.8 10.5 89 0.9 WSW 30 39 16 21 1013.2 1013.2 2.6
18/04:00pm 12.3 5.7 9.9 85 1.2 WSW 35 50 19 27 1012.9 1012.9 2.4
18/03:30pm 12.4 6.3 11.8 96 0.3 SW 35 44 19 24 1012.9 1012.9 2.2
18/03:00pm 12.8 7.3 12.0 95 0.4 SW 32 39 17 21 1012.2 1012.2 1.6
18/02:30pm 12.7 5.9 12.1 96 0.3 SW 39 52 21 28 1011.8 1011.8 1.2
18/02:00pm 14.5 9.6 10.1 75 2.3 W 26 46 14 25 1011.7 1011.7 0.0
18/01:30pm 18.3 14.1 11.1 63 3.9 NW 24 43 13 23 1010.3 1010.3 0.0
18/01:00pm 18.4 14.3 11.5 64 3.8 NW 24 35 13 19 1010.6 1010.6 0.0
18/12:30pm 17.9 14.3 11.9 68 3.3 NW 22 33 12 18 1011.2 1011.2 0.0
18/12:00pm 17.7 14.9 12.6 72 2.8 NNW 19 33 10 18 1011.5 1011.5 0.0
18/11:30am 18.5 14.9 10.6 60 4.3 NW 20 35 11 19 1011.7 1011.7 0.0
18/11:00am 17.9 13.5 10.5 62 4.0 NW 24 39 13 21 1011.8 1011.8 0.0
18/10:30am 17.3 13.3 10.4 64 3.7 NW 22 35 12 19 1012.2 1012.2 0.0
18/10:00am 15.8 12.0 9.9 68 3.1 NW 20 41 11 22 1012.5 1012.5 0.0
18/09:30am 15.3 11.1 9.9 70 2.8 NNW 22 33 12 18 1012.4 1012.4 0.0
18/09:00am 14.0 10.1 9.4 74 2.4 NW 20 32 11 17 1013.1 1013.1 0.2
18/08:30am 12.5 9.6 9.5 82 1.5 NNW 15 22 8 12 1013.1 1013.1 0.2
18/08:00am 11.2 7.8 9.1 87 1.0 NNW 17 28 9 15 1013.1 1013.1 0.2
18/07:30am 10.4 7.3 9.0 91 0.7 NNW 15 24 8 13 1013.0 1013.0 0.2
18/07:00am 10.3 7.6 8.9 91 0.7 NNW 13 20 7 11 1012.7 1012.7 0.2
18/06:30am 10.6 8.3 8.9 89 0.8 NNW 11 20 6 11 1012.6 1012.6 0.2
18/06:00am 11.0 8.3 8.9 87 1.0 NNW 13 19 7 10 1012.6 1012.6 0.2
18/05:30am 11.7 9.9 9.3 85 1.2 NNW 9 17 5 9 1012.5 1012.5 0.2
18/05:00am 12.1 10.3 9.5 84 1.3 NW 9 17 5 9 1012.4 1012.4 0.2
18/04:30am 11.8 9.6 9.2 84 1.3 NW 11 15 6 8 1012.2 1012.2 0.2
18/04:00am 11.8 9.6 9.2 84 1.3 NNW 11 15 6 8 1012.2 1012.2 0.2
18/03:30am 12.2 9.6 9.4 83 1.4 NNW 13 17 7 9 1012.2 1012.2 0.2
18/03:00am 12.2 10.1 9.6 84 1.3 NNW 11 17 6 9 1012.3 1012.3 0.2
18/02:30am 12.2 10.5 9.8 85 1.2 NNW 9 15 5 8 1012.6 1012.6 0.2
18/02:00am 12.3 10.6 9.9 85 1.2 NNW 9 13 5 7 1013.2 1013.2 0.2
18/01:30am 12.3 11.0 10.0 86 1.2 NW 7 11 4 6 1013.5 1013.5 0.2
18/01:00am 12.2 10.2 10.1 87 1.1 NNW 11 15 6 8 1013.7 1013.7 0.2
18/12:30am 12.2 11.0 10.4 89 0.9 NNW 7 11 4 6 1013.7 1013.7 0.2
18/12:00am 12.4 11.3 10.6 89 0.9 NNW 7 11 4 6 1014.1 1014.1 0.2
 
Date/Time
EST
Temp
°C
App
Temp
°C
Dew
Point
Rel
Hum
%
Delta-T
°C
Wind Press
QNH
hPa
Press
MSL
hPa
Rain
since 9 am
mm
Dir
 
Spd
km/h
Gust
km/h
Spd
kts
Gust
kts
17/11:30pm 12.8 11.9 10.5 86 1.2 NW 6 9 3 5 1014.6 1014.6 0.0
17/11:00pm 13.4 12.7 10.0 80 1.8 NW 4 7 2 4 1015.0 1015.0 0.0
17/10:30pm 13.7 13.0 9.9 78 2.0 NW 4 6 2 3 1015.1 1015.1 0.0
17/10:00pm 13.9 12.5 9.7 76 2.2 W 7 9 4 5 1015.2 1015.2 0.0
17/09:30pm 14.1 12.9 9.7 75 2.3 WNW 6 9 3 5 1015.4 1015.4 0.0
17/09:00pm 14.6 12.9 10.0 74 2.4 WSW 9 13 5 7 1015.4 1015.4 0.0
17/08:30pm 14.8 13.1 9.8 72 2.6 WSW 9 11 5 6 1015.6 1015.6 0.0
17/08:00pm 15.0 13.4 10.2 73 2.5 WSW 9 13 5 7 1015.8 1015.8 0.0
17/07:30pm 15.0 13.4 10.2 73 2.5 WSW 9 11 5 6 1015.7 1015.7 0.0
17/07:00pm 15.0 13.9 9.8 71 2.7 WSW 6 7 3 4 1015.7 1015.7 0.0
17/06:30pm 15.2 13.9 9.8 70 2.8 WSW 7 9 4 5 1015.5 1015.5 0.0
17/06:00pm 15.5 14.2 9.8 69 3.0 WSW 7 9 4 5 1015.5 1015.5 0.0
17/05:30pm 16.0 14.7 10.1 68 3.1 WSW 7 11 4 6 1015.6 1015.6 0.0
17/05:00pm 16.4 15.3 8.4 59 4.1 NW 4 9 2 5 1015.9 1015.9 0.0
17/04:30pm 16.7 15.1 8.1 57 4.4 NNW 6 9 3 5 1016.1 1016.1 0.0
17/04:00pm 16.7 14.9 8.1 57 4.4 N 7 13 4 7 1016.3 1016.3 0.0
17/03:30pm 16.5 14.3 8.0 57 4.3 N 9 15 5 8 1016.7 1016.7 0.0
17/03:00pm 16.1 14.0 8.1 59 4.0 NNE 9 15 5 8 1017.2 1017.2 0.0
17/02:30pm 16.0 13.9 8.2 60 3.9 NNE 9 17 5 9 1017.5 1017.5 0.0
17/02:00pm 15.9 13.6 8.9 63 3.6 NE 11 17 6 9 1017.5 1017.5 0.0
17/01:30pm 15.7 14.0 8.2 61 3.8 NNE 7 15 4 8 1018.5 1018.5 0.0
17/01:00pm 15.7 13.8 8.9 64 3.5 NE 9 13 5 7 1019.5 1019.5 0.0
17/12:30pm 15.8 13.4 8.8 63 3.6 NE 11 20 6 11 1019.9 1019.9 0.0
17/12:00pm 15.5 13.6 9.0 65 3.3 ENE 9 15 5 8 1020.7 1020.7 0.0
17/11:30am 15.2 12.8 8.7 65 3.3 NE 11 15 6 8 1021.3 1021.3 0.0
17/11:00am 14.8 12.8 8.5 66 3.2 NE 9 15 5 8 1021.7 1021.7 0.0
17/10:30am 13.9 11.3 7.7 66 3.1 NE 11 19 6 10 1022.5 1022.5 0.0
17/10:00am 13.1 11.2 9.0 76 2.1 NNE 9 13 5 7 1022.9 1022.9 0.0
17/09:30am 11.7 10.1 8.0 78 1.8 NNE 6 7 3 4 1023.1 1023.1 0.0
17/09:00am 10.1 8.1 7.3 83 1.3 N 7 9 4 5 1023.4 1023.4 0.0
17/08:30am 8.3 6.3 6.4 88 0.9 N 6 7 3 4 1023.9 1023.9 0.0
17/08:00am 7.3 5.2 5.9 91 0.6 N 6 9 3 5 1023.8 1023.8 0.0
17/07:30am 6.5 4.3 5.1 91 0.6 N 6 7 3 4 1023.7 1023.7 0.0
17/07:00am 6.7 4.5 5.2 90 0.7 N 6 9 3 5 1023.6 1023.6 0.0
17/06:30am 7.2 5.0 5.5 89 0.8 NNE 6 7 3 4 1023.5 1023.5 0.0
17/06:00am 7.7 5.4 5.8 88 0.9 NNE 7 9 4 5 1023.5 1023.5 0.0
17/05:30am 7.9 5.6 5.9 87 0.9 NNE 7 11 4 6 1023.4 1023.4 0.0
17/05:00am 8.2 6.0 6.0 86 1.0 N 7 9 4 5 1023.5 1023.5 0.0
17/04:30am 8.3 6.1 6.1 86 1.0 N 7 9 4 5 1023.5 1023.5 0.0
17/04:00am 8.4 6.2 6.2 86 1.0 N 7 9 4 5 1023.6 1023.6 0.0
17/03:30am 8.5 6.5 6.1 85 1.1 N 6 9 3 5 1023.6 1023.6 0.0
17/03:00am 8.6 6.4 6.4 86 1.0 NNE 7 9 4 5 1023.8 1023.8 0.0
17/02:30am 8.1 6.1 6.1 87 0.9 NNW 6 7 3 4 1024.1 1024.1 0.0
17/02:00am 8.3 6.3 6.1 86 1.0 N 6 6 3 3 1024.3 1024.3 0.0
17/01:30am 8.3 6.6 5.8 84 1.1 NNW 4 6 2 3 1024.5 1024.5 0.0
17/01:00am 8.8 6.8 6.3 84 1.1 N 6 9 3 5 1024.6 1024.6 0.0
17/12:30am 9.0 6.8 6.3 83 1.2 NNE 7 9 4 5 1024.9 1024.9 0.0
17/12:00am 9.2 7.1 6.5 83 1.2 N 7 9 4 5 1025.3 1025.3 0.0
 
Date/Time
EST
Temp
°C
App
Temp
°C
Dew
Point
Rel
Hum
%
Delta-T
°C
Wind Press
QNH
hPa
Press
MSL
hPa
Rain
since 9 am
mm
Dir
 
Spd
km/h
Gust
km/h
Spd
kts
Gust
kts
16/11:30pm 9.3 7.3 6.4 82 1.3 N 6 7 3 4 1025.9 1025.9 0.0
16/11:00pm 9.8 7.9 6.5 80 1.5 N 6 7 3 4 1026.4 1026.4 0.0
16/10:30pm 10.3 8.8 6.6 78 1.7 N 4 6 2 3 1026.5 1026.5 0.0
16/10:00pm 11.2 9.7 6.9 75 2.0 NNW 4 6 2 3 1026.6 1026.6 0.0
16/09:30pm 11.8 11.2 7.3 74 2.2 CALM 0 0 0 0 1026.6 1026.6 0.0
16/09:00pm 12.2 11.6 7.3 72 2.4 CALM 0 0 0 0 1026.3 1026.3 0.0
16/08:30pm 12.5 11.9 7.4 71 2.5 CALM 0 0 0 0 1026.6 1026.6 0.0
16/08:00pm 13.0 12.4 7.5 69 2.7 CALM 0 0 0 0 1026.5 1026.5 0.0
16/07:30pm 13.3 11.8 6.9 65 3.1 SW 4 7 2 4 1026.5 1026.5 0.0
16/07:00pm 13.7 11.9 7.2 65 3.1 SW 6 9 3 5 1026.4 1026.4 0.0
16/06:30pm 13.6 11.6 6.9 64 3.2 SW 7 11 4 6 1026.0 1026.0 0.0
16/06:00pm 13.3 10.9 6.9 65 3.1 SW 9 15 5 8 1025.7 1025.7 0.0
16/05:30pm 13.4 11.0 7.0 65 3.1 SW 9 13 5 7 1025.7 1025.7 0.0
16/05:00pm 13.6 11.2 6.9 64 3.2 SSW 9 13 5 7 1025.6 1025.6 0.0
16/04:30pm 13.9 11.5 7.2 64 3.3 SW 9 15 5 8 1025.7 1025.7 0.0
16/04:00pm 14.1 11.4 7.2 63 3.4 SSW 11 17 6 9 1025.7 1025.7 0.0
16/03:30pm 14.3 11.9 7.1 62 3.5 SW 9 15 5 8 1025.8 1025.8 0.0
16/03:00pm 14.4 11.6 7.0 61 3.6 SW 11 17 6 9 1025.8 1025.8 0.0
16/02:30pm 14.5 10.9 6.8 60 3.7 SW 15 20 8 11 1025.7 1025.7 0.0
16/02:00pm 14.7 11.2 7.3 61 3.6 SSW 15 20 8 11 1025.9 1025.9 0.0
16/01:30pm 15.4 12.3 7.2 58 4.0 SW 13 20 7 11 1026.1 1026.1 0.0

Other Formats:

Comma delimited format used in spreadsheet applications
http://www.bom.gov.au/fwo/IDV60801/IDV60801.94830.axf

JavaScript Object Notation format (JSON) in row-major order
http://www.bom.gov.au/fwo/IDV60801/IDV60801.94830.json